Pine Island, MN

3:04 AM CST on December 20, 2014 (GMT -0600)
Zumbro Hills | Change Station
CLOSE
Current Station
Personal Weather Station
Location: Oronoco, MN
Elevation: 988 ft
Nearby Weather Stations

Elev 988 ft 44.15 °N, 92.54 °W | Updated 2 seconds ago

Overcast
Overcast
28.8 °F
Feels Like 29 °F
N
2.0
Wind Variable Wind from SSW
Gusts 4.0 mph

Today
High -- | Low -- °F
--% Chance of Precip.
Yesterday
High -- | Low -- °F
Precip. -- in
7:42 AM 4:34 PM
Waning Crescent, 4% visible
Pressure 30.19 in
Visibility 10.0 miles
Clouds Overcast 1100 ft
Windchill 29 °F
Dew Point 26 °F
Humidity 88%
Rainfall 0.00 in
Snow Depth Not available.
UV 0 out of 12
Pollen .10 out of 12
Air Quality Not available.
Flu Activity Not available.
METAR K9MN 200854Z AUTO 16006KT 10SM OVC011 M02/M05 A3019 RMK AO1 T10171051

More Conditions Fewer Conditions

Pressure 30.19 in
Visibility 10.0 miles
Clouds Overcast 1100 ft
Windchill 29 °F
Dew Point 26 °F
Humidity 88%
Rainfall 0.00 in
Snow Depth Not available.
UV 0 out of 12
Pollen .10 out of 12
Air Quality Not available.
Flu Activity Not available.
METAR K9MN 200854Z AUTO 16006KT 10SM OVC011 M02/M05 A3019 RMK AO1 T10171051

More Conditions Fewer Conditions

10-Day Weather Forecast

Almanac

Astronomy

Dec. 20, 2014 Rise Set
Actual Time
Civil Twilight
Nautical Twilight
Astronomical Twilight
Moon
Length of Visible Light
Length of Day
Tomorrow will be .
, % of the Moon is Illuminated

Today's Extremes

State Highs State Lows

Community

WunderPhotos

Upload Photos

1,779,146 photos uploaded!

WunderBlogs® & News

Nearby

Air Quality

  Air Quality AQ Index Pollutant
Not available.

Snow Depth

Station Depth Elevation

Earthquake Activity

City Distance Mag. Time & Date
Minimum magnitude displayed is 2.5.

Coastal Water Temperatures

Place Temperature

Nearby Weather Stations